Detall de PIREP

Printer-friendly versionPDF version

[2011/10/08 21:16:00]
Flight IATA:CT0003
Pilot Number:026
Company ICAO:CAT
Aircraft Type:DC85/A
PAX:132
Departing Airport: LIEA
Destination Airport: LICJ
Alternate Airport:LICA
Online: VATSIM
Route:SODIO UM732 CAR UM871 KAPIL
Flight Level:F290
No Slew and time accel
No pause
Crash detect
Detect pilot in Cockpit between each 30 and 45 minutes
21:16 Zero fuel Weight: 178427 Lbs, Fuel Weight: 24016 Lbs
21:16 VATSIM:LIEA 082050Z 32006KT 280V350 9999 SCT040 19/12 Q1013
21:16 VATSIM:LICJ 082050Z 32011KT 9999 FEW035 21/10 Q1010
21:16 VOICE CATALONIAN
21:23 Parking Brakes off
21:32 Take-off
21:32 Take off Weight: 200902 Lbs
21:32 Wind: 322º @ 006 Knots Heading: 021º
21:32 POS N40º 38´ 06´´ E008º 17´ 33´´
21:32 Gear Up: 180 Knots
21:32 Flaps:2 at 180 Knots
21:34 Flaps:1 at 267 Knots
21:36 Flaps:0 at 220 Knots
21:45 TOC
21:45 Fuel Weight: 18016 Lb
21:47 Wind:315º@046 Knots Heading: 148º Ground Speed: 536 Knots Altitude 28946 ft
21:58 TOD
21:58 Fuel Weight: 14626 Lb
22:02 Wind:320º@041 Knots Heading: 107º Ground Speed: 473 Knots Altitude 23684 ft
22:17 Wind:320º@028 Knots Heading: 039º Ground Speed: 277 Knots Altitude 6437 ft
22:21 Flaps:1 at 153 Knots
22:22 Gear Down: 169 Knots
22:23 Flaps:2 at 162 Knots
22:23 Flaps:3 at 150 Knots
22:24 Flaps:4 at 157 Knots
22:24 Flaps:5 at 148 Knots
22:25 TouchDown:Rate -409 ft/min Speed: 116 Knots
22:26 VATSIM:LICJ 082150Z 32013KT 9999 FEW035 21/08 Q1010
22:26 Land
22:26 Wind:319º@013 Knots
22:26 Heading: 248º
22:26 Flight Duration: 00:54
22:26 Landing Weight: 190098 Lbs
22:26 POS N38º 10´ 56´´ E013º 06´ 37´´
22:30 Parking brakes on
22:30 Block to Block Duration: 01:07
22:30 Final Fuel: 11298 Lbls
22:30 Spent Fuel: 12718 Lbls
22:30 Flight Length: 351 NM
22:30 TOD Land Length: 149 NM

Exportar CSV

Powered by Drupal - Modified by Danger4k